Aeroporto :
LOGIN :

Iscrizione | Disclaimer

   EN    FR    IT 

 










Sommario :    VFR   VFR Marginale   IFR   IFR Intensivo   IFR Molto Intensivo
Visibilità : 
Base nubi : 
>= 8 km
>= 3000ft
5 / 8 km
1000 / 3000 ft
1500m / 5 km
500 / 1000 ft
800 / 1500m
200 / 500 ft
< 800m
< 200 ft
Simboli :   Temporali  Nebbia  Neve Forte  Precipitazioni Forti  Vento > 20 kt
SIGMETs :   Varie  Temporali  Ghiacco  Turbolenza  Onda orograficha  Ceneri Vulcaniche






- Altitudine del aeroporto : 117 ft
- Codice IATA : NWI


EGSH - Norwich

ULTIMO METAR :
  • 271220Z 24016KT 9999 SCT025 SCT035 15/10 Q1008 NOSIG

METARs OBSOLETI :
  • 271150Z 25018KT 9999 FEW022 SCT026 BKN032 15/10 Q1007 NOSIG
  • 271120Z 25020KT 9999 SCT016 SCT022 BKN026 15/11 Q1006 NOSIG
  • 271050Z 24021KT 9999 SCT016 SCT022 BKN026 16/13 Q1005 NOSIG
  • 271020Z 22016KT 190V260 9000 -RA FEW001 SCT012 BKN020 17/14 Q1004 RERA TEMPO 4000 RA BKN012
  • 270950Z 18019KT 140V220 6000 -RA SCT011 BKN016 BKN026 18/16 Q1002 TEMPO 18020G30KT 4000 RA BKN010

TAF TAF EGSH
Valido dal 27 a 12 ore il 27 a 21 ore UTC


271103Z 2712/2721 26014KT 9999 SCT020
PROB30
TEMPO 2712/2717 27017G27KT
PROB30
TEMPO 2712/2714 8000 SHRA
BECMG 2715/2718 21008KT
ATIS : +44 1603 420 640



MetMap, La meteo Aeronautica in un colpo d'occhio ! - Copyright ORBIFLY Dicembre 2007 - Disclaimer

ORBIFLY MET'MAP TEAM :

Programmazione e sviluppo : Alexandra Zaïnal
Concezione : Baudouin d'Aumeries
Aiuto per la programmazione : Marc-Olivier Méhu
Supporto tecnico e logistico : Manuel Goepfert
Aiuto per la traduzione : Arnaldo La Scala

Contatto : metmap@orbifly.com




FONTI E CREDITI :

   NOAA